sensor_id;sensor_type;location;lat;lon;timestamp;P1;durP1;ratioP1;P2;durP2;ratioP2
17852;SDS011;9052;53.494;14.376;2023-02-27T00:00:55;3.37;;;2.20;;
17852;SDS011;9052;53.494;14.376;2023-02-27T00:03:22;3.17;;;2.87;;
17852;SDS011;9052;53.494;14.376;2023-02-27T00:05:49;3.17;;;2.73;;
17852;SDS011;9052;53.494;14.376;2023-02-27T00:08:16;11.67;;;4.60;;
17852;SDS011;9052;53.494;14.376;2023-02-27T00:10:44;11.20;;;4.90;;
17852;SDS011;9052;53.494;14.376;2023-02-27T00:13:10;3.50;;;3.20;;
17852;SDS011;9052;53.494;14.376;2023-02-27T00:15:37;8.17;;;2.87;;
17852;SDS011;9052;53.494;14.376;2023-02-27T00:18:05;13.70;;;3.50;;
17852;SDS011;9052;53.494;14.376;2023-02-27T00:20:32;10.40;;;4.27;;
17852;SDS011;9052;53.494;14.376;2023-02-27T00:23:02;7.27;;;3.33;;
17852;SDS011;9052;53.494;14.376;2023-02-27T00:25:30;3.93;;;3.23;;
17852;SDS011;9052;53.494;14.376;2023-02-27T00:27:58;3.10;;;2.40;;
17852;SDS011;9052;53.494;14.376;2023-02-27T00:30:25;2.10;;;1.90;;
17852;SDS011;9052;53.494;14.376;2023-02-27T00:32:52;3.87;;;2.00;;
17852;SDS011;9052;53.494;14.376;2023-02-27T00:35:19;2.60;;;1.80;;
17852;SDS011;9052;53.494;14.376;2023-02-27T00:37:46;3.40;;;2.70;;
17852;SDS011;9052;53.494;14.376;2023-02-27T00:40:13;3.40;;;2.70;;
17852;SDS011;9052;53.494;14.376;2023-02-27T00:42:40;4.00;;;1.73;;
17852;SDS011;9052;53.494;14.376;2023-02-27T00:45:09;7.40;;;2.30;;
17852;SDS011;9052;53.494;14.376;2023-02-27T00:47:36;9.17;;;3.63;;
17852;SDS011;9052;53.494;14.376;2023-02-27T00:50:03;12.50;;;3.20;;
17852;SDS011;9052;53.494;14.376;2023-02-27T00:52:30;2.20;;;1.77;;
17852;SDS011;9052;53.494;14.376;2023-02-27T00:54:57;1.77;;;1.57;;
17852;SDS011;9052;53.494;14.376;2023-02-27T00:57:24;2.10;;;1.57;;
17852;SDS011;9052;53.494;14.376;2023-02-27T00:59:51;1.00;;;1.00;;
17852;SDS011;9052;53.494;14.376;2023-02-27T01:02:19;2.90;;;1.90;;
17852;SDS011;9052;53.494;14.376;2023-02-27T01:04:46;20.07;;;1.93;;
17852;SDS011;9052;53.494;14.376;2023-02-27T01:07:13;2.97;;;2.77;;
17852;SDS011;9052;53.494;14.376;2023-02-27T01:09:39;12.97;;;6.50;;
17852;SDS011;9052;53.494;14.376;2023-02-27T01:12:06;11.00;;;7.13;;
17852;SDS011;9052;53.494;14.376;2023-02-27T01:14:33;8.00;;;5.17;;
17852;SDS011;9052;53.494;14.376;2023-02-27T01:17:00;5.40;;;2.33;;
17852;SDS011;9052;53.494;14.376;2023-02-27T01:19:28;6.00;;;5.10;;
17852;SDS011;9052;53.494;14.376;2023-02-27T01:21:55;12.67;;;5.60;;
17852;SDS011;9052;53.494;14.376;2023-02-27T01:24:21;9.57;;;6.23;;
17852;SDS011;9052;53.494;14.376;2023-02-27T01:26:48;4.87;;;2.73;;
17852;SDS011;9052;53.494;14.376;2023-02-27T01:29:16;1.67;;;1.47;;
17852;SDS011;9052;53.494;14.376;2023-02-27T01:31:43;15.00;;;1.70;;
17852;SDS011;9052;53.494;14.376;2023-02-27T01:34:10;4.87;;;1.63;;
17852;SDS011;9052;53.494;14.376;2023-02-27T01:36:38;2.40;;;1.40;;
17852;SDS011;9052;53.494;14.376;2023-02-27T01:39:04;1.77;;;1.43;;
17852;SDS011;9052;53.494;14.376;2023-02-27T01:41:31;2.00;;;1.40;;
17852;SDS011;9052;53.494;14.376;2023-02-27T01:43:59;11.07;;;5.60;;
17852;SDS011;9052;53.494;14.376;2023-02-27T01:46:27;5.17;;;4.43;;
17852;SDS011;9052;53.494;14.376;2023-02-27T01:48:55;8.17;;;4.53;;
17852;SDS011;9052;53.494;14.376;2023-02-27T01:51:25;5.03;;;4.07;;
17852;SDS011;9052;53.494;14.376;2023-02-27T01:53:55;8.00;;;3.23;;
17852;SDS011;9052;53.494;14.376;2023-02-27T01:56:22;6.90;;;2.87;;
17852;SDS011;9052;53.494;14.376;2023-02-27T01:58:50;10.03;;;2.70;;
17852;SDS011;9052;53.494;14.376;2023-02-27T02:01:19;3.83;;;3.00;;
17852;SDS011;9052;53.494;14.376;2023-02-27T02:03:49;13.63;;;3.10;;
17852;SDS011;9052;53.494;14.376;2023-02-27T02:06:20;3.43;;;2.63;;
17852;SDS011;9052;53.494;14.376;2023-02-27T02:08:48;5.90;;;3.80;;
17852;SDS011;9052;53.494;14.376;2023-02-27T02:11:18;6.03;;;2.73;;
17852;SDS011;9052;53.494;14.376;2023-02-27T02:13:45;3.73;;;3.07;;
17852;SDS011;9052;53.494;14.376;2023-02-27T02:16:20;2.53;;;2.30;;
17852;SDS011;9052;53.494;14.376;2023-02-27T02:18:53;4.93;;;3.07;;
17852;SDS011;9052;53.494;14.376;2023-02-27T02:21:36;6.50;;;2.53;;
17852;SDS011;9052;53.494;14.376;2023-02-27T02:27:40;14.17;;;2.87;;
17852;SDS011;9052;53.494;14.376;2023-02-27T02:30:24;3.40;;;2.20;;
17852;SDS011;9052;53.494;14.376;2023-02-27T02:33:32;1.83;;;1.73;;
17852;SDS011;9052;53.494;14.376;2023-02-27T02:42:04;9.70;;;2.20;;
17852;SDS011;9052;53.494;14.376;2023-02-27T02:44:39;1.97;;;1.77;;
17852;SDS011;9052;53.494;14.376;2023-02-27T02:47:12;2.90;;;2.10;;
17852;SDS011;9052;53.494;14.376;2023-02-27T02:49:44;9.77;;;2.30;;
17852;SDS011;9052;53.494;14.376;2023-02-27T02:52:17;1.93;;;1.77;;
17852;SDS011;9052;53.494;14.376;2023-02-27T02:54:48;4.30;;;2.20;;
17852;SDS011;9052;53.494;14.376;2023-02-27T02:57:20;2.97;;;1.83;;
17852;SDS011;9052;53.494;14.376;2023-02-27T02:59:52;2.33;;;2.10;;
17852;SDS011;9052;53.494;14.376;2023-02-27T03:02:23;1.87;;;1.70;;
17852;SDS011;9052;53.494;14.376;2023-02-27T03:04:52;3.57;;;1.30;;
17852;SDS011;9052;53.494;14.376;2023-02-27T03:07:22;3.93;;;1.97;;
17852;SDS011;9052;53.494;14.376;2023-02-27T03:09:54;6.57;;;2.50;;
17852;SDS011;9052;53.494;14.376;2023-02-27T03:12:24;3.10;;;2.00;;
17852;SDS011;9052;53.494;14.376;2023-02-27T03:14:53;2.80;;;2.27;;
17852;SDS011;9052;53.494;14.376;2023-02-27T03:17:23;1.63;;;1.43;;
17852;SDS011;9052;53.494;14.376;2023-02-27T03:19:55;6.00;;;2.97;;
17852;SDS011;9052;53.494;14.376;2023-02-27T03:22:26;2.63;;;2.23;;
17852;SDS011;9052;53.494;14.376;2023-02-27T03:24:56;1.90;;;1.70;;
17852;SDS011;9052;53.494;14.376;2023-02-27T03:27:26;2.20;;;2.00;;
17852;SDS011;9052;53.494;14.376;2023-02-27T03:29:57;3.03;;;1.63;;
17852;SDS011;9052;53.494;14.376;2023-02-27T03:32:28;5.70;;;2.00;;
17852;SDS011;9052;53.494;14.376;2023-02-27T03:34:58;3.20;;;2.30;;
17852;SDS011;9052;53.494;14.376;2023-02-27T03:37:26;7.60;;;2.17;;
17852;SDS011;9052;53.494;14.376;2023-02-27T03:39:59;6.17;;;2.43;;
17852;SDS011;9052;53.494;14.376;2023-02-27T03:42:32;2.80;;;2.30;;
17852;SDS011;9052;53.494;14.376;2023-02-27T03:45:02;3.00;;;2.03;;
17852;SDS011;9052;53.494;14.376;2023-02-27T03:47:31;6.37;;;2.33;;
17852;SDS011;9052;53.494;14.376;2023-02-27T03:49:58;2.43;;;2.07;;
17852;SDS011;9052;53.494;14.376;2023-02-27T03:52:25;2.10;;;1.90;;
17852;SDS011;9052;53.494;14.376;2023-02-27T03:54:55;4.00;;;2.17;;
17852;SDS011;9052;53.494;14.376;2023-02-27T03:57:24;3.30;;;2.00;;
17852;SDS011;9052;53.494;14.376;2023-02-27T03:59:52;3.17;;;2.20;;
17852;SDS011;9052;53.494;14.376;2023-02-27T04:02:19;9.67;;;2.47;;
17852;SDS011;9052;53.494;14.376;2023-02-27T04:04:46;2.93;;;1.90;;
17852;SDS011;9052;53.494;14.376;2023-02-27T04:07:14;4.87;;;2.93;;
17852;SDS011;9052;53.494;14.376;2023-02-27T04:09:51;3.30;;;2.37;;
17852;SDS011;9052;53.494;14.376;2023-02-27T04:12:55;2.40;;;2.30;;
17852;SDS011;9052;53.494;14.376;2023-02-27T04:15:31;2.40;;;2.20;;
17852;SDS011;9052;53.494;14.376;2023-02-27T04:18:07;3.57;;;2.30;;
17852;SDS011;9052;53.494;14.376;2023-02-27T04:20:43;3.47;;;3.27;;
17852;SDS011;9052;53.494;14.376;2023-02-27T04:23:11;3.73;;;2.53;;
17852;SDS011;9052;53.494;14.376;2023-02-27T04:25:50;8.83;;;3.03;;
17852;SDS011;9052;53.494;14.376;2023-02-27T04:28:22;5.57;;;1.83;;
17852;SDS011;9052;53.494;14.376;2023-02-27T04:30:56;6.00;;;2.33;;
17852;SDS011;9052;53.494;14.376;2023-02-27T04:33:28;3.73;;;1.93;;
17852;SDS011;9052;53.494;14.376;2023-02-27T04:36:01;6.00;;;3.27;;
17852;SDS011;9052;53.494;14.376;2023-02-27T04:38:32;4.80;;;2.13;;
17852;SDS011;9052;53.494;14.376;2023-02-27T04:41:03;2.70;;;2.13;;
17852;SDS011;9052;53.494;14.376;2023-02-27T04:43:33;2.67;;;2.47;;
17852;SDS011;9052;53.494;14.376;2023-02-27T04:46:02;6.20;;;2.87;;
17852;SDS011;9052;53.494;14.376;2023-02-27T04:48:31;20.30;;;10.80;;
17852;SDS011;9052;53.494;14.376;2023-02-27T04:51:01;9.40;;;4.73;;
17852;SDS011;9052;53.494;14.376;2023-02-27T04:53:31;10.90;;;3.17;;
17852;SDS011;9052;53.494;14.376;2023-02-27T04:56:02;4.70;;;3.13;;
17852;SDS011;9052;53.494;14.376;2023-02-27T04:58:31;4.63;;;2.77;;
17852;SDS011;9052;53.494;14.376;2023-02-27T05:01:02;3.10;;;2.40;;
17852;SDS011;9052;53.494;14.376;2023-02-27T05:03:32;5.13;;;4.63;;
17852;SDS011;9052;53.494;14.376;2023-02-27T05:06:00;6.63;;;5.70;;
17852;SDS011;9052;53.494;14.376;2023-02-27T05:08:29;9.80;;;6.53;;
17852;SDS011;9052;53.494;14.376;2023-02-27T05:11:01;7.30;;;5.50;;
17852;SDS011;9052;53.494;14.376;2023-02-27T05:13:31;11.73;;;5.90;;
17852;SDS011;9052;53.494;14.376;2023-02-27T05:16:03;11.93;;;4.43;;
17852;SDS011;9052;53.494;14.376;2023-02-27T05:18:33;4.90;;;4.50;;
17852;SDS011;9052;53.494;14.376;2023-02-27T05:21:01;6.60;;;5.30;;
17852;SDS011;9052;53.494;14.376;2023-02-27T05:23:34;8.63;;;4.60;;
17852;SDS011;9052;53.494;14.376;2023-02-27T05:26:03;9.20;;;4.20;;
17852;SDS011;9052;53.494;14.376;2023-02-27T05:28:35;5.73;;;5.10;;
17852;SDS011;9052;53.494;14.376;2023-02-27T05:31:04;16.50;;;5.30;;
17852;SDS011;9052;53.494;14.376;2023-02-27T05:33:36;30.80;;;13.43;;
17852;SDS011;9052;53.494;14.376;2023-02-27T05:36:06;25.43;;;10.23;;
17852;SDS011;9052;53.494;14.376;2023-02-27T05:38:36;13.93;;;8.90;;
17852;SDS011;9052;53.494;14.376;2023-02-27T05:41:04;11.40;;;6.30;;
17852;SDS011;9052;53.494;14.376;2023-02-27T05:43:33;11.60;;;4.93;;
17852;SDS011;9052;53.494;14.376;2023-02-27T05:46:02;3.93;;;3.63;;
17852;SDS011;9052;53.494;14.376;2023-02-27T05:48:32;8.30;;;4.40;;
17852;SDS011;9052;53.494;14.376;2023-02-27T05:51:02;8.60;;;4.23;;
17852;SDS011;9052;53.494;14.376;2023-02-27T05:53:29;5.50;;;3.90;;
17852;SDS011;9052;53.494;14.376;2023-02-27T05:55:59;7.03;;;4.70;;
17852;SDS011;9052;53.494;14.376;2023-02-27T05:58:28;13.93;;;6.17;;
17852;SDS011;9052;53.494;14.376;2023-02-27T06:00:57;17.77;;;8.83;;
17852;SDS011;9052;53.494;14.376;2023-02-27T06:03:27;30.53;;;16.93;;
17852;SDS011;9052;53.494;14.376;2023-02-27T06:05:54;16.03;;;9.17;;
17852;SDS011;9052;53.494;14.376;2023-02-27T06:08:22;11.80;;;6.77;;
17852;SDS011;9052;53.494;14.376;2023-02-27T06:10:49;14.10;;;9.93;;
17852;SDS011;9052;53.494;14.376;2023-02-27T06:13:16;11.23;;;6.50;;
17852;SDS011;9052;53.494;14.376;2023-02-27T06:15:43;19.00;;;8.43;;
17852;SDS011;9052;53.494;14.376;2023-02-27T06:18:10;8.80;;;5.20;;
17852;SDS011;9052;53.494;14.376;2023-02-27T06:20:39;5.50;;;4.47;;
17852;SDS011;9052;53.494;14.376;2023-02-27T06:23:05;8.43;;;5.00;;
17852;SDS011;9052;53.494;14.376;2023-02-27T06:25:32;4.40;;;4.00;;
17852;SDS011;9052;53.494;14.376;2023-02-27T06:27:59;6.90;;;5.13;;
17852;SDS011;9052;53.494;14.376;2023-02-27T06:30:26;19.03;;;9.67;;
17852;SDS011;9052;53.494;14.376;2023-02-27T06:32:53;33.40;;;14.23;;
17852;SDS011;9052;53.494;14.376;2023-02-27T06:35:20;19.67;;;7.87;;
17852;SDS011;9052;53.494;14.376;2023-02-27T06:37:48;19.17;;;9.63;;
17852;SDS011;9052;53.494;14.376;2023-02-27T06:40:15;25.17;;;9.73;;
17852;SDS011;9052;53.494;14.376;2023-02-27T06:42:43;8.70;;;5.87;;
17852;SDS011;9052;53.494;14.376;2023-02-27T06:45:11;15.20;;;8.13;;
17852;SDS011;9052;53.494;14.376;2023-02-27T06:47:39;5.50;;;5.00;;
17852;SDS011;9052;53.494;14.376;2023-02-27T06:50:06;6.53;;;4.30;;
17852;SDS011;9052;53.494;14.376;2023-02-27T06:52:35;7.87;;;6.43;;
17852;SDS011;9052;53.494;14.376;2023-02-27T06:55:04;8.13;;;6.33;;
17852;SDS011;9052;53.494;14.376;2023-02-27T06:57:31;5.70;;;4.30;;
17852;SDS011;9052;53.494;14.376;2023-02-27T06:59:58;4.73;;;3.80;;
17852;SDS011;9052;53.494;14.376;2023-02-27T07:02:25;5.90;;;4.30;;
17852;SDS011;9052;53.494;14.376;2023-02-27T07:04:51;21.03;;;9.53;;
17852;SDS011;9052;53.494;14.376;2023-02-27T07:07:18;19.90;;;10.60;;
17852;SDS011;9052;53.494;14.376;2023-02-27T07:09:45;8.80;;;7.77;;
17852;SDS011;9052;53.494;14.376;2023-02-27T07:12:14;7.97;;;4.83;;
17852;SDS011;9052;53.494;14.376;2023-02-27T07:14:41;4.33;;;3.93;;
17852;SDS011;9052;53.494;14.376;2023-02-27T07:17:07;4.40;;;3.83;;
17852;SDS011;9052;53.494;14.376;2023-02-27T07:19:35;9.70;;;3.97;;
17852;SDS011;9052;53.494;14.376;2023-02-27T07:22:02;5.13;;;4.63;;
17852;SDS011;9052;53.494;14.376;2023-02-27T07:24:29;10.93;;;5.90;;
17852;SDS011;9052;53.494;14.376;2023-02-27T07:26:55;4.70;;;4.33;;
17852;SDS011;9052;53.494;14.376;2023-02-27T07:29:24;10.53;;;5.53;;
17852;SDS011;9052;53.494;14.376;2023-02-27T07:31:50;10.00;;;8.27;;
17852;SDS011;9052;53.494;14.376;2023-02-27T07:34:17;8.47;;;7.30;;
17852;SDS011;9052;53.494;14.376;2023-02-27T07:36:43;5.93;;;4.47;;
17852;SDS011;9052;53.494;14.376;2023-02-27T07:39:11;14.83;;;4.47;;
17852;SDS011;9052;53.494;14.376;2023-02-27T07:41:38;10.10;;;5.43;;
17852;SDS011;9052;53.494;14.376;2023-02-27T07:44:05;4.83;;;4.33;;
17852;SDS011;9052;53.494;14.376;2023-02-27T07:46:34;6.77;;;4.73;;
17852;SDS011;9052;53.494;14.376;2023-02-27T07:49:01;9.77;;;5.77;;
17852;SDS011;9052;53.494;14.376;2023-02-27T07:51:27;6.50;;;5.90;;
17852;SDS011;9052;53.494;14.376;2023-02-27T07:53:55;5.83;;;5.07;;
17852;SDS011;9052;53.494;14.376;2023-02-27T07:56:22;8.10;;;5.17;;
17852;SDS011;9052;53.494;14.376;2023-02-27T07:58:48;12.60;;;7.57;;
17852;SDS011;9052;53.494;14.376;2023-02-27T08:01:15;16.47;;;11.00;;
17852;SDS011;9052;53.494;14.376;2023-02-27T08:03:43;9.77;;;7.53;;
17852;SDS011;9052;53.494;14.376;2023-02-27T08:06:10;12.37;;;5.40;;
17852;SDS011;9052;53.494;14.376;2023-02-27T08:08:36;13.33;;;5.50;;
17852;SDS011;9052;53.494;14.376;2023-02-27T08:11:03;10.63;;;5.23;;
17852;SDS011;9052;53.494;14.376;2023-02-27T08:13:30;11.03;;;5.27;;
17852;SDS011;9052;53.494;14.376;2023-02-27T08:15:57;8.53;;;4.70;;
17852;SDS011;9052;53.494;14.376;2023-02-27T08:18:24;4.90;;;4.50;;
17852;SDS011;9052;53.494;14.376;2023-02-27T08:20:52;6.57;;;3.93;;
17852;SDS011;9052;53.494;14.376;2023-02-27T08:23:20;30.90;;;4.67;;
17852;SDS011;9052;53.494;14.376;2023-02-27T08:25:47;13.37;;;4.10;;
17852;SDS011;9052;53.494;14.376;2023-02-27T08:28:14;10.30;;;4.37;;
17852;SDS011;9052;53.494;14.376;2023-02-27T08:30:42;6.60;;;2.93;;
17852;SDS011;9052;53.494;14.376;2023-02-27T08:33:09;3.73;;;2.40;;
17852;SDS011;9052;53.494;14.376;2023-02-27T08:35:36;7.17;;;3.53;;
17852;SDS011;9052;53.494;14.376;2023-02-27T08:38:04;3.17;;;1.77;;
17852;SDS011;9052;53.494;14.376;2023-02-27T08:40:30;4.63;;;2.67;;
17852;SDS011;9052;53.494;14.376;2023-02-27T08:42:57;3.80;;;2.10;;
17852;SDS011;9052;53.494;14.376;2023-02-27T08:45:24;4.33;;;2.23;;
17852;SDS011;9052;53.494;14.376;2023-02-27T08:47:50;2.53;;;2.10;;
17852;SDS011;9052;53.494;14.376;2023-02-27T08:50:17;4.57;;;1.77;;
17852;SDS011;9052;53.494;14.376;2023-02-27T08:52:44;1.60;;;1.27;;
17852;SDS011;9052;53.494;14.376;2023-02-27T08:55:12;1.50;;;1.40;;
17852;SDS011;9052;53.494;14.376;2023-02-27T08:57:39;1.40;;;1.30;;
17852;SDS011;9052;53.494;14.376;2023-02-27T09:00:06;2.10;;;1.90;;
17852;SDS011;9052;53.494;14.376;2023-02-27T09:02:34;3.17;;;1.10;;
17852;SDS011;9052;53.494;14.376;2023-02-27T09:05:01;6.47;;;2.30;;
17852;SDS011;9052;53.494;14.376;2023-02-27T09:07:28;2.40;;;1.20;;
17852;SDS011;9052;53.494;14.376;2023-02-27T09:09:54;5.23;;;1.50;;
17852;SDS011;9052;53.494;14.376;2023-02-27T09:12:22;5.03;;;1.70;;
17852;SDS011;9052;53.494;14.376;2023-02-27T09:14:49;2.40;;;2.03;;
17852;SDS011;9052;53.494;14.376;2023-02-27T09:17:16;6.70;;;1.93;;
17852;SDS011;9052;53.494;14.376;2023-02-27T09:19:42;1.93;;;1.70;;
17852;SDS011;9052;53.494;14.376;2023-02-27T09:22:09;5.50;;;2.10;;
17852;SDS011;9052;53.494;14.376;2023-02-27T09:24:36;3.33;;;1.90;;
17852;SDS011;9052;53.494;14.376;2023-02-27T09:27:03;4.37;;;2.20;;
17852;SDS011;9052;53.494;14.376;2023-02-27T09:31:59;2.90;;;2.07;;
17852;SDS011;9052;53.494;14.376;2023-02-27T09:34:25;1.73;;;1.13;;
17852;SDS011;9052;53.494;14.376;2023-02-27T09:36:53;1.93;;;1.53;;
17852;SDS011;9052;53.494;14.376;2023-02-27T09:39:20;2.30;;;2.00;;
17852;SDS011;9052;53.494;14.376;2023-02-27T09:41:50;2.30;;;1.40;;
17852;SDS011;9052;53.494;14.376;2023-02-27T09:44:22;1.90;;;1.80;;
17852;SDS011;9052;53.494;14.376;2023-02-27T09:46:53;2.37;;;1.97;;
17852;SDS011;9052;53.494;14.376;2023-02-27T09:49:20;3.33;;;2.00;;
17852;SDS011;9052;53.494;14.376;2023-02-27T09:51:49;2.00;;;1.47;;
17852;SDS011;9052;53.494;14.376;2023-02-27T09:54:16;5.20;;;2.00;;
17852;SDS011;9052;53.494;14.376;2023-02-27T09:56:45;1.07;;;1.07;;
17852;SDS011;9052;53.494;14.376;2023-02-27T09:59:15;2.77;;;1.30;;
17852;SDS011;9052;53.494;14.376;2023-02-27T10:01:50;1.83;;;1.40;;
17852;SDS011;9052;53.494;14.376;2023-02-27T10:04:27;1.90;;;1.10;;
17852;SDS011;9052;53.494;14.376;2023-02-27T10:06:57;26.03;;;2.13;;
17852;SDS011;9052;53.494;14.376;2023-02-27T10:09:30;3.63;;;1.03;;
17852;SDS011;9052;53.494;14.376;2023-02-27T10:12:05;7.90;;;2.50;;
17852;SDS011;9052;53.494;14.376;2023-02-27T10:14:41;2.47;;;1.70;;
17852;SDS011;9052;53.494;14.376;2023-02-27T10:17:13;3.60;;;1.40;;
17852;SDS011;9052;53.494;14.376;2023-02-27T10:19:44;1.20;;;0.80;;
17852;SDS011;9052;53.494;14.376;2023-02-27T10:22:13;1.17;;;1.07;;
17852;SDS011;9052;53.494;14.376;2023-02-27T10:24:45;1.73;;;1.07;;
17852;SDS011;9052;53.494;14.376;2023-02-27T10:27:16;1.57;;;1.47;;
17852;SDS011;9052;53.494;14.376;2023-02-27T10:29:45;1.47;;;1.37;;
17852;SDS011;9052;53.494;14.376;2023-02-27T10:32:13;1.10;;;1.00;;
17852;SDS011;9052;53.494;14.376;2023-02-27T10:34:42;3.80;;;1.20;;
17852;SDS011;9052;53.494;14.376;2023-02-27T10:37:12;3.07;;;1.20;;
17852;SDS011;9052;53.494;14.376;2023-02-27T10:39:43;0.70;;;0.70;;
17852;SDS011;9052;53.494;14.376;2023-02-27T10:42:11;0.83;;;0.83;;
17852;SDS011;9052;53.494;14.376;2023-02-27T10:44:39;1.10;;;0.87;;
17852;SDS011;9052;53.494;14.376;2023-02-27T10:47:06;1.97;;;0.90;;
17852;SDS011;9052;53.494;14.376;2023-02-27T10:49:40;3.37;;;1.43;;
17852;SDS011;9052;53.494;14.376;2023-02-27T10:52:08;0.77;;;0.77;;
17852;SDS011;9052;53.494;14.376;2023-02-27T10:54:36;0.90;;;0.90;;
17852;SDS011;9052;53.494;14.376;2023-02-27T10:57:05;1.63;;;1.40;;
17852;SDS011;9052;53.494;14.376;2023-02-27T10:59:41;1.33;;;1.00;;
17852;SDS011;9052;53.494;14.376;2023-02-27T11:02:24;1.57;;;0.90;;
17852;SDS011;9052;53.494;14.376;2023-02-27T11:05:01;1.20;;;1.20;;
17852;SDS011;9052;53.494;14.376;2023-02-27T11:07:29;2.33;;;1.90;;
17852;SDS011;9052;53.494;14.376;2023-02-27T11:09:59;1.50;;;1.40;;
17852;SDS011;9052;53.494;14.376;2023-02-27T11:12:28;1.70;;;1.57;;
17852;SDS011;9052;53.494;14.376;2023-02-27T11:14:56;5.13;;;2.00;;
17852;SDS011;9052;53.494;14.376;2023-02-27T11:17:26;3.63;;;2.10;;
17852;SDS011;9052;53.494;14.376;2023-02-27T11:19:54;4.03;;;2.00;;
17852;SDS011;9052;53.494;14.376;2023-02-27T11:22:21;2.47;;;2.27;;
17852;SDS011;9052;53.494;14.376;2023-02-27T11:24:49;3.57;;;2.80;;
17852;SDS011;9052;53.494;14.376;2023-02-27T11:27:17;4.30;;;3.60;;
17852;SDS011;9052;53.494;14.376;2023-02-27T11:29:54;8.17;;;4.63;;
17852;SDS011;9052;53.494;14.376;2023-02-27T11:32:22;6.97;;;5.07;;
17852;SDS011;9052;53.494;14.376;2023-02-27T11:34:51;6.30;;;4.90;;
17852;SDS011;9052;53.494;14.376;2023-02-27T11:37:20;6.53;;;4.57;;
17852;SDS011;9052;53.494;14.376;2023-02-27T11:39:50;10.70;;;6.00;;
17852;SDS011;9052;53.494;14.376;2023-02-27T11:42:17;8.70;;;6.27;;
17852;SDS011;9052;53.494;14.376;2023-02-27T11:44:50;8.07;;;6.10;;
17852;SDS011;9052;53.494;14.376;2023-02-27T11:47:21;2.10;;;2.00;;
17852;SDS011;9052;53.494;14.376;2023-02-27T11:52:52;2.90;;;1.80;;
17852;SDS011;9052;53.494;14.376;2023-02-27T11:55:26;4.03;;;0.83;;
17852;SDS011;9052;53.494;14.376;2023-02-27T11:57:54;1.63;;;0.50;;
17852;SDS011;9052;53.494;14.376;2023-02-27T12:00:26;0.90;;;0.70;;
17852;SDS011;9052;53.494;14.376;2023-02-27T12:02:57;1.03;;;0.80;;
17852;SDS011;9052;53.494;14.376;2023-02-27T12:05:28;3.80;;;0.93;;
17852;SDS011;9052;53.494;14.376;2023-02-27T12:07:59;0.70;;;0.47;;
17852;SDS011;9052;53.494;14.376;2023-02-27T12:10:30;1.50;;;0.70;;
17852;SDS011;9052;53.494;14.376;2023-02-27T12:13:00;0.70;;;0.70;;
17852;SDS011;9052;53.494;14.376;2023-02-27T12:15:30;3.10;;;0.60;;
17852;SDS011;9052;53.494;14.376;2023-02-27T12:18:03;1.37;;;0.70;;
17852;SDS011;9052;53.494;14.376;2023-02-27T12:20:34;0.40;;;0.40;;
17852;SDS011;9052;53.494;14.376;2023-02-27T12:23:10;1.10;;;0.90;;
17852;SDS011;9052;53.494;14.376;2023-02-27T12:25:43;0.50;;;0.50;;
17852;SDS011;9052;53.494;14.376;2023-02-27T12:28:16;0.70;;;0.70;;
17852;SDS011;9052;53.494;14.376;2023-02-27T12:30:49;1.80;;;0.90;;
17852;SDS011;9052;53.494;14.376;2023-02-27T12:33:27;3.60;;;1.13;;
17852;SDS011;9052;53.494;14.376;2023-02-27T12:36:00;1.67;;;0.60;;
17852;SDS011;9052;53.494;14.376;2023-02-27T12:38:29;0.70;;;0.53;;
17852;SDS011;9052;53.494;14.376;2023-02-27T12:41:00;0.90;;;0.40;;
17852;SDS011;9052;53.494;14.376;2023-02-27T12:43:34;0.50;;;0.50;;
17852;SDS011;9052;53.494;14.376;2023-02-27T12:46:10;0.60;;;0.60;;
17852;SDS011;9052;53.494;14.376;2023-02-27T12:48:46;1.37;;;0.90;;
17852;SDS011;9052;53.494;14.376;2023-02-27T12:51:26;5.23;;;0.80;;
17852;SDS011;9052;53.494;14.376;2023-02-27T12:54:02;0.90;;;0.90;;
17852;SDS011;9052;53.494;14.376;2023-02-27T12:56:40;1.53;;;0.60;;
17852;SDS011;9052;53.494;14.376;2023-02-27T12:59:14;1.67;;;1.20;;
17852;SDS011;9052;53.494;14.376;2023-02-27T13:01:52;0.83;;;0.83;;
17852;SDS011;9052;53.494;14.376;2023-02-27T13:04:24;2.40;;;1.40;;
17852;SDS011;9052;53.494;14.376;2023-02-27T13:06:56;2.10;;;0.70;;
17852;SDS011;9052;53.494;14.376;2023-02-27T13:09:32;3.07;;;1.20;;
17852;SDS011;9052;53.494;14.376;2023-02-27T13:12:02;0.67;;;0.67;;
17852;SDS011;9052;53.494;14.376;2023-02-27T13:14:38;0.60;;;0.60;;
17852;SDS011;9052;53.494;14.376;2023-02-27T13:17:11;0.70;;;0.60;;
17852;SDS011;9052;53.494;14.376;2023-02-27T13:19:45;1.33;;;0.60;;
17852;SDS011;9052;53.494;14.376;2023-02-27T13:22:17;3.00;;;1.00;;
17852;SDS011;9052;53.494;14.376;2023-02-27T13:24:50;0.70;;;0.50;;
17852;SDS011;9052;53.494;14.376;2023-02-27T13:27:18;1.60;;;0.60;;
17852;SDS011;9052;53.494;14.376;2023-02-27T13:29:50;0.73;;;0.47;;
17852;SDS011;9052;53.494;14.376;2023-02-27T13:32:22;5.23;;;0.70;;
17852;SDS011;9052;53.494;14.376;2023-02-27T13:34:52;0.97;;;0.70;;
17852;SDS011;9052;53.494;14.376;2023-02-27T13:37:20;0.83;;;0.70;;
17852;SDS011;9052;53.494;14.376;2023-02-27T13:39:53;0.90;;;0.70;;
17852;SDS011;9052;53.494;14.376;2023-02-27T13:48:38;3.50;;;0.50;;
17852;SDS011;9052;53.494;14.376;2023-02-27T13:54:21;0.77;;;0.60;;
17852;SDS011;9052;53.494;14.376;2023-02-27T13:59:51;0.90;;;0.50;;
17852;SDS011;9052;53.494;14.376;2023-02-27T14:05:09;1.03;;;0.50;;
17852;SDS011;9052;53.494;14.376;2023-02-27T14:07:52;2.00;;;0.63;;
17852;SDS011;9052;53.494;14.376;2023-02-27T14:10:23;5.13;;;1.00;;
17852;SDS011;9052;53.494;14.376;2023-02-27T14:12:52;0.60;;;0.50;;
17852;SDS011;9052;53.494;14.376;2023-02-27T14:24:26;4.40;;;0.67;;
17852;SDS011;9052;53.494;14.376;2023-02-27T14:26:57;1.27;;;0.70;;
17852;SDS011;9052;53.494;14.376;2023-02-27T14:29:27;0.80;;;0.40;;
17852;SDS011;9052;53.494;14.376;2023-02-27T14:31:58;0.40;;;0.40;;
17852;SDS011;9052;53.494;14.376;2023-02-27T14:34:26;0.50;;;0.50;;
17852;SDS011;9052;53.494;14.376;2023-02-27T14:36:53;4.37;;;0.50;;
17852;SDS011;9052;53.494;14.376;2023-02-27T14:39:24;1.10;;;0.40;;
17852;SDS011;9052;53.494;14.376;2023-02-27T14:41:58;0.40;;;0.40;;
17852;SDS011;9052;53.494;14.376;2023-02-27T14:44:46;1.60;;;0.70;;
17852;SDS011;9052;53.494;14.376;2023-02-27T14:47:14;1.90;;;0.40;;
17852;SDS011;9052;53.494;14.376;2023-02-27T14:49:44;0.73;;;0.40;;
17852;SDS011;9052;53.494;14.376;2023-02-27T14:52:13;4.60;;;2.87;;
17852;SDS011;9052;53.494;14.376;2023-02-27T14:54:43;4.97;;;2.53;;
17852;SDS011;9052;53.494;14.376;2023-02-27T14:57:13;2.07;;;1.27;;
17852;SDS011;9052;53.494;14.376;2023-02-27T14:59:42;1.00;;;0.80;;
17852;SDS011;9052;53.494;14.376;2023-02-27T15:02:15;1.20;;;1.10;;
17852;SDS011;9052;53.494;14.376;2023-02-27T15:04:44;1.57;;;1.03;;
17852;SDS011;9052;53.494;14.376;2023-02-27T15:07:16;0.40;;;0.40;;
17852;SDS011;9052;53.494;14.376;2023-02-27T15:09:44;3.67;;;0.60;;
17852;SDS011;9052;53.494;14.376;2023-02-27T15:12:15;1.00;;;0.73;;
17852;SDS011;9052;53.494;14.376;2023-02-27T15:14:44;1.30;;;0.50;;
17852;SDS011;9052;53.494;14.376;2023-02-27T15:17:15;2.00;;;0.77;;
17852;SDS011;9052;53.494;14.376;2023-02-27T15:19:46;1.33;;;0.50;;
17852;SDS011;9052;53.494;14.376;2023-02-27T15:22:15;4.10;;;0.67;;
17852;SDS011;9052;53.494;14.376;2023-02-27T15:24:44;0.77;;;0.40;;
17852;SDS011;9052;53.494;14.376;2023-02-27T15:27:13;0.70;;;0.40;;
17852;SDS011;9052;53.494;14.376;2023-02-27T15:29:42;0.60;;;0.30;;
17852;SDS011;9052;53.494;14.376;2023-02-27T15:32:13;0.50;;;0.50;;
17852;SDS011;9052;53.494;14.376;2023-02-27T15:34:45;4.30;;;1.30;;
17852;SDS011;9052;53.494;14.376;2023-02-27T15:37:14;5.40;;;0.90;;
17852;SDS011;9052;53.494;14.376;2023-02-27T15:39:43;3.23;;;1.07;;